sensor_id;sensor_type;location;lat;lon;timestamp;P1;durP1;ratioP1;P2;durP2;ratioP2
72569;SDS011;60594;50.204;8.844;2023-07-20T00:01:29;4.50;;;1.65;;
72569;SDS011;60594;50.204;8.844;2023-07-20T00:03:55;6.05;;;1.70;;
72569;SDS011;60594;50.204;8.844;2023-07-20T00:06:23;4.10;;;1.70;;
72569;SDS011;60594;50.204;8.844;2023-07-20T00:08:51;3.70;;;1.63;;
72569;SDS011;60594;50.204;8.844;2023-07-20T00:11:18;5.20;;;1.83;;
72569;SDS011;60594;50.204;8.844;2023-07-20T00:13:44;3.92;;;1.90;;
72569;SDS011;60594;50.204;8.844;2023-07-20T00:16:11;5.43;;;1.55;;
72569;SDS011;60594;50.204;8.844;2023-07-20T00:18:37;4.28;;;1.65;;
72569;SDS011;60594;50.204;8.844;2023-07-20T00:21:04;4.18;;;1.60;;
72569;SDS011;60594;50.204;8.844;2023-07-20T00:23:30;5.97;;;1.60;;
72569;SDS011;60594;50.204;8.844;2023-07-20T00:25:57;4.80;;;1.75;;
72569;SDS011;60594;50.204;8.844;2023-07-20T00:28:23;3.75;;;1.67;;
72569;SDS011;60594;50.204;8.844;2023-07-20T00:30:50;4.80;;;1.83;;
72569;SDS011;60594;50.204;8.844;2023-07-20T00:33:17;3.95;;;1.70;;
72569;SDS011;60594;50.204;8.844;2023-07-20T00:35:44;4.50;;;1.80;;
72569;SDS011;60594;50.204;8.844;2023-07-20T00:38:11;7.30;;;1.90;;
72569;SDS011;60594;50.204;8.844;2023-07-20T00:40:38;5.10;;;1.77;;
72569;SDS011;60594;50.204;8.844;2023-07-20T00:43:05;3.78;;;1.60;;
72569;SDS011;60594;50.204;8.844;2023-07-20T00:45:33;5.15;;;2.03;;
72569;SDS011;60594;50.204;8.844;2023-07-20T00:48:01;3.67;;;1.52;;
72569;SDS011;60594;50.204;8.844;2023-07-20T00:50:28;5.65;;;1.85;;
72569;SDS011;60594;50.204;8.844;2023-07-20T00:52:55;5.18;;;1.77;;
72569;SDS011;60594;50.204;8.844;2023-07-20T00:57:53;5.88;;;1.90;;
72569;SDS011;60594;50.204;8.844;2023-07-20T01:00:19;5.30;;;2.05;;
72569;SDS011;60594;50.204;8.844;2023-07-20T01:02:46;5.53;;;1.90;;
72569;SDS011;60594;50.204;8.844;2023-07-20T01:05:13;4.07;;;1.73;;
72569;SDS011;60594;50.204;8.844;2023-07-20T01:13:04;3.72;;;1.60;;
72569;SDS011;60594;50.204;8.844;2023-07-20T01:15:33;4.88;;;1.60;;
72569;SDS011;60594;50.204;8.844;2023-07-20T01:18:00;6.20;;;2.15;;
72569;SDS011;60594;50.204;8.844;2023-07-20T01:20:27;4.43;;;1.95;;
72569;SDS011;60594;50.204;8.844;2023-07-20T01:23:00;5.13;;;1.63;;
72569;SDS011;60594;50.204;8.844;2023-07-20T01:25:45;4.22;;;2.00;;
72569;SDS011;60594;50.204;8.844;2023-07-20T01:28:50;5.40;;;1.58;;
72569;SDS011;60594;50.204;8.844;2023-07-20T01:33:51;4.20;;;1.70;;
72569;SDS011;60594;50.204;8.844;2023-07-20T01:36:22;5.95;;;2.10;;
72569;SDS011;60594;50.204;8.844;2023-07-20T01:38:51;4.88;;;2.72;;
72569;SDS011;60594;50.204;8.844;2023-07-20T01:41:18;6.25;;;1.90;;
72569;SDS011;60594;50.204;8.844;2023-07-20T01:43:46;4.47;;;2.00;;
72569;SDS011;60594;50.204;8.844;2023-07-20T01:46:13;5.72;;;2.10;;
72569;SDS011;60594;50.204;8.844;2023-07-20T01:48:39;4.38;;;1.60;;
72569;SDS011;60594;50.204;8.844;2023-07-20T01:51:06;6.22;;;2.67;;
72569;SDS011;60594;50.204;8.844;2023-07-20T01:53:32;6.65;;;2.00;;
72569;SDS011;60594;50.204;8.844;2023-07-20T01:55:59;4.90;;;2.33;;
72569;SDS011;60594;50.204;8.844;2023-07-20T01:58:26;4.68;;;2.00;;
72569;SDS011;60594;50.204;8.844;2023-07-20T02:00:52;4.70;;;1.92;;
72569;SDS011;60594;50.204;8.844;2023-07-20T02:03:19;4.25;;;2.10;;
72569;SDS011;60594;50.204;8.844;2023-07-20T02:05:48;4.60;;;2.00;;
72569;SDS011;60594;50.204;8.844;2023-07-20T02:08:14;5.85;;;1.77;;
72569;SDS011;60594;50.204;8.844;2023-07-20T02:10:42;5.72;;;2.13;;
72569;SDS011;60594;50.204;8.844;2023-07-20T02:13:12;5.32;;;2.10;;
72569;SDS011;60594;50.204;8.844;2023-07-20T02:15:38;5.78;;;2.15;;
72569;SDS011;60594;50.204;8.844;2023-07-20T02:18:05;4.45;;;2.08;;
72569;SDS011;60594;50.204;8.844;2023-07-20T02:20:34;4.95;;;2.03;;
72569;SDS011;60594;50.204;8.844;2023-07-20T02:23:01;3.90;;;1.77;;
72569;SDS011;60594;50.204;8.844;2023-07-20T02:25:28;5.47;;;2.05;;
72569;SDS011;60594;50.204;8.844;2023-07-20T02:27:55;4.65;;;1.90;;
72569;SDS011;60594;50.204;8.844;2023-07-20T02:30:22;4.78;;;1.98;;
72569;SDS011;60594;50.204;8.844;2023-07-20T02:32:49;7.25;;;2.25;;
72569;SDS011;60594;50.204;8.844;2023-07-20T02:35:16;4.13;;;1.77;;
72569;SDS011;60594;50.204;8.844;2023-07-20T02:37:42;4.95;;;1.85;;
72569;SDS011;60594;50.204;8.844;2023-07-20T02:40:09;5.47;;;2.20;;
72569;SDS011;60594;50.204;8.844;2023-07-20T02:42:36;4.78;;;1.95;;
72569;SDS011;60594;50.204;8.844;2023-07-20T02:45:03;5.25;;;2.03;;
72569;SDS011;60594;50.204;8.844;2023-07-20T02:47:31;4.35;;;2.20;;
72569;SDS011;60594;50.204;8.844;2023-07-20T02:49:58;4.00;;;1.50;;
72569;SDS011;60594;50.204;8.844;2023-07-20T02:52:25;4.82;;;1.90;;
72569;SDS011;60594;50.204;8.844;2023-07-20T02:54:51;5.55;;;2.15;;
72569;SDS011;60594;50.204;8.844;2023-07-20T02:57:18;5.68;;;2.10;;
72569;SDS011;60594;50.204;8.844;2023-07-20T02:59:44;4.80;;;1.90;;
72569;SDS011;60594;50.204;8.844;2023-07-20T03:02:11;5.00;;;1.80;;
72569;SDS011;60594;50.204;8.844;2023-07-20T03:04:37;5.03;;;1.90;;
72569;SDS011;60594;50.204;8.844;2023-07-20T03:07:04;4.07;;;1.83;;
72569;SDS011;60594;50.204;8.844;2023-07-20T03:09:32;5.15;;;1.98;;
72569;SDS011;60594;50.204;8.844;2023-07-20T03:11:58;4.85;;;1.83;;
72569;SDS011;60594;50.204;8.844;2023-07-20T03:14:25;5.03;;;1.75;;
72569;SDS011;60594;50.204;8.844;2023-07-20T03:16:51;4.20;;;1.88;;
72569;SDS011;60594;50.204;8.844;2023-07-20T03:19:18;6.38;;;2.10;;
72569;SDS011;60594;50.204;8.844;2023-07-20T03:21:44;5.32;;;1.92;;
72569;SDS011;60594;50.204;8.844;2023-07-20T03:24:11;6.95;;;1.95;;
72569;SDS011;60594;50.204;8.844;2023-07-20T03:26:37;8.57;;;2.28;;
72569;SDS011;60594;50.204;8.844;2023-07-20T03:29:04;5.90;;;2.08;;
72569;SDS011;60594;50.204;8.844;2023-07-20T03:31:32;5.28;;;1.85;;
72569;SDS011;60594;50.204;8.844;2023-07-20T03:33:59;5.18;;;2.00;;
72569;SDS011;60594;50.204;8.844;2023-07-20T03:36:25;4.97;;;2.00;;
72569;SDS011;60594;50.204;8.844;2023-07-20T03:38:52;5.15;;;2.00;;
72569;SDS011;60594;50.204;8.844;2023-07-20T03:41:18;4.35;;;1.83;;
72569;SDS011;60594;50.204;8.844;2023-07-20T03:43:46;5.72;;;1.90;;
72569;SDS011;60594;50.204;8.844;2023-07-20T03:46:12;8.18;;;2.40;;
72569;SDS011;60594;50.204;8.844;2023-07-20T03:48:39;5.65;;;1.90;;
72569;SDS011;60594;50.204;8.844;2023-07-20T03:51:05;5.57;;;2.15;;
72569;SDS011;60594;50.204;8.844;2023-07-20T03:53:32;5.38;;;2.45;;
72569;SDS011;60594;50.204;8.844;2023-07-20T03:55:58;4.35;;;1.90;;
72569;SDS011;60594;50.204;8.844;2023-07-20T03:58:25;5.90;;;1.98;;
72569;SDS011;60594;50.204;8.844;2023-07-20T04:00:51;5.35;;;1.95;;
72569;SDS011;60594;50.204;8.844;2023-07-20T04:03:18;4.82;;;1.88;;
72569;SDS011;60594;50.204;8.844;2023-07-20T04:05:45;4.38;;;2.00;;
72569;SDS011;60594;50.204;8.844;2023-07-20T04:08:12;6.60;;;2.03;;
72569;SDS011;60594;50.204;8.844;2023-07-20T04:10:39;5.85;;;2.25;;
72569;SDS011;60594;50.204;8.844;2023-07-20T04:13:06;4.43;;;2.03;;
72569;SDS011;60594;50.204;8.844;2023-07-20T04:15:32;4.72;;;2.00;;
72569;SDS011;60594;50.204;8.844;2023-07-20T04:18:00;4.78;;;2.28;;
72569;SDS011;60594;50.204;8.844;2023-07-20T04:20:27;4.93;;;2.10;;
72569;SDS011;60594;50.204;8.844;2023-07-20T04:22:53;4.63;;;2.00;;
72569;SDS011;60594;50.204;8.844;2023-07-20T04:25:21;5.20;;;1.98;;
72569;SDS011;60594;50.204;8.844;2023-07-20T04:27:48;3.88;;;1.95;;
72569;SDS011;60594;50.204;8.844;2023-07-20T04:30:16;6.22;;;2.25;;
72569;SDS011;60594;50.204;8.844;2023-07-20T04:32:46;5.70;;;2.20;;
72569;SDS011;60594;50.204;8.844;2023-07-20T04:35:16;5.45;;;2.05;;
72569;SDS011;60594;50.204;8.844;2023-07-20T04:37:45;5.65;;;2.20;;
72569;SDS011;60594;50.204;8.844;2023-07-20T04:40:15;4.07;;;1.90;;
72569;SDS011;60594;50.204;8.844;2023-07-20T04:42:42;5.28;;;1.90;;
72569;SDS011;60594;50.204;8.844;2023-07-20T04:45:09;5.78;;;2.17;;
72569;SDS011;60594;50.204;8.844;2023-07-20T04:47:37;6.25;;;2.22;;
72569;SDS011;60594;50.204;8.844;2023-07-20T04:50:03;6.32;;;2.30;;
72569;SDS011;60594;50.204;8.844;2023-07-20T04:54:59;4.05;;;1.92;;
72569;SDS011;60594;50.204;8.844;2023-07-20T04:57:25;4.00;;;2.00;;
72569;SDS011;60594;50.204;8.844;2023-07-20T04:59:52;4.80;;;2.05;;
72569;SDS011;60594;50.204;8.844;2023-07-20T05:02:19;4.80;;;2.03;;
72569;SDS011;60594;50.204;8.844;2023-07-20T05:04:45;5.03;;;1.95;;
72569;SDS011;60594;50.204;8.844;2023-07-20T05:07:12;5.28;;;2.08;;
72569;SDS011;60594;50.204;8.844;2023-07-20T05:09:39;5.00;;;2.00;;
72569;SDS011;60594;50.204;8.844;2023-07-20T05:12:05;6.07;;;2.40;;
72569;SDS011;60594;50.204;8.844;2023-07-20T05:14:32;6.20;;;2.13;;
72569;SDS011;60594;50.204;8.844;2023-07-20T05:16:59;4.25;;;2.03;;
72569;SDS011;60594;50.204;8.844;2023-07-20T05:19:25;4.93;;;2.00;;
72569;SDS011;60594;50.204;8.844;2023-07-20T05:21:52;6.30;;;2.10;;
72569;SDS011;60594;50.204;8.844;2023-07-20T05:24:18;5.65;;;2.10;;
72569;SDS011;60594;50.204;8.844;2023-07-20T05:26:45;5.47;;;2.03;;
72569;SDS011;60594;50.204;8.844;2023-07-20T05:29:11;6.00;;;2.45;;
72569;SDS011;60594;50.204;8.844;2023-07-20T05:31:38;5.97;;;2.67;;
72569;SDS011;60594;50.204;8.844;2023-07-20T05:34:04;6.15;;;2.30;;
72569;SDS011;60594;50.204;8.844;2023-07-20T05:36:31;4.88;;;2.28;;
72569;SDS011;60594;50.204;8.844;2023-07-20T05:38:57;6.95;;;2.40;;
72569;SDS011;60594;50.204;8.844;2023-07-20T05:41:24;7.00;;;2.38;;
72569;SDS011;60594;50.204;8.844;2023-07-20T05:43:50;5.43;;;2.50;;
72569;SDS011;60594;50.204;8.844;2023-07-20T05:46:17;6.20;;;2.53;;
72569;SDS011;60594;50.204;8.844;2023-07-20T05:48:44;7.60;;;2.63;;
72569;SDS011;60594;50.204;8.844;2023-07-20T05:51:10;9.57;;;2.53;;
72569;SDS011;60594;50.204;8.844;2023-07-20T05:53:37;7.35;;;2.30;;
72569;SDS011;60594;50.204;8.844;2023-07-20T05:56:04;4.90;;;1.88;;
72569;SDS011;60594;50.204;8.844;2023-07-20T05:58:31;5.75;;;2.63;;
72569;SDS011;60594;50.204;8.844;2023-07-20T06:00:58;7.13;;;2.17;;
72569;SDS011;60594;50.204;8.844;2023-07-20T06:03:24;6.47;;;2.40;;
72569;SDS011;60594;50.204;8.844;2023-07-20T06:05:51;6.40;;;2.40;;
72569;SDS011;60594;50.204;8.844;2023-07-20T06:08:18;5.97;;;2.40;;
72569;SDS011;60594;50.204;8.844;2023-07-20T06:10:49;4.28;;;2.10;;
72569;SDS011;60594;50.204;8.844;2023-07-20T06:13:16;5.72;;;2.35;;
72569;SDS011;60594;50.204;8.844;2023-07-20T06:15:43;5.57;;;2.58;;
72569;SDS011;60594;50.204;8.844;2023-07-20T06:18:10;6.53;;;2.45;;
72569;SDS011;60594;50.204;8.844;2023-07-20T06:20:36;5.20;;;2.42;;
72569;SDS011;60594;50.204;8.844;2023-07-20T06:23:03;5.35;;;2.53;;
72569;SDS011;60594;50.204;8.844;2023-07-20T06:25:29;5.75;;;2.30;;
72569;SDS011;60594;50.204;8.844;2023-07-20T06:27:56;5.78;;;2.42;;
72569;SDS011;60594;50.204;8.844;2023-07-20T06:30:22;6.47;;;2.22;;
72569;SDS011;60594;50.204;8.844;2023-07-20T06:32:50;5.13;;;2.28;;
72569;SDS011;60594;50.204;8.844;2023-07-20T06:35:16;5.75;;;2.28;;
72569;SDS011;60594;50.204;8.844;2023-07-20T06:37:43;6.63;;;2.38;;
72569;SDS011;60594;50.204;8.844;2023-07-20T06:40:10;5.05;;;2.65;;
72569;SDS011;60594;50.204;8.844;2023-07-20T06:42:36;5.93;;;2.42;;
72569;SDS011;60594;50.204;8.844;2023-07-20T06:45:03;5.50;;;2.05;;
72569;SDS011;60594;50.204;8.844;2023-07-20T06:47:30;4.60;;;2.33;;
72569;SDS011;60594;50.204;8.844;2023-07-20T06:49:57;5.97;;;2.05;;
72569;SDS011;60594;50.204;8.844;2023-07-20T06:52:23;5.57;;;2.22;;
72569;SDS011;60594;50.204;8.844;2023-07-20T06:54:50;6.75;;;2.30;;
72569;SDS011;60594;50.204;8.844;2023-07-20T06:57:17;8.30;;;2.58;;
72569;SDS011;60594;50.204;8.844;2023-07-20T06:59:44;5.13;;;2.40;;
72569;SDS011;60594;50.204;8.844;2023-07-20T07:02:10;4.03;;;1.83;;
72569;SDS011;60594;50.204;8.844;2023-07-20T07:04:37;5.15;;;2.13;;
72569;SDS011;60594;50.204;8.844;2023-07-20T07:07:03;5.78;;;2.22;;
72569;SDS011;60594;50.204;8.844;2023-07-20T07:09:30;6.75;;;2.30;;
72569;SDS011;60594;50.204;8.844;2023-07-20T07:11:56;4.45;;;1.65;;
72569;SDS011;60594;50.204;8.844;2023-07-20T07:14:23;3.90;;;1.85;;
72569;SDS011;60594;50.204;8.844;2023-07-20T07:16:49;4.95;;;2.33;;
72569;SDS011;60594;50.204;8.844;2023-07-20T07:19:16;6.28;;;2.20;;
72569;SDS011;60594;50.204;8.844;2023-07-20T07:21:42;5.45;;;2.15;;
72569;SDS011;60594;50.204;8.844;2023-07-20T07:24:09;4.00;;;1.98;;
72569;SDS011;60594;50.204;8.844;2023-07-20T07:26:36;4.35;;;2.03;;
72569;SDS011;60594;50.204;8.844;2023-07-20T07:29:03;4.47;;;2.10;;
72569;SDS011;60594;50.204;8.844;2023-07-20T07:31:30;6.22;;;2.30;;
72569;SDS011;60594;50.204;8.844;2023-07-20T07:33:56;4.32;;;2.00;;
72569;SDS011;60594;50.204;8.844;2023-07-20T07:36:23;6.10;;;2.40;;
72569;SDS011;60594;50.204;8.844;2023-07-20T07:38:51;6.22;;;2.13;;
72569;SDS011;60594;50.204;8.844;2023-07-20T07:41:17;4.07;;;2.40;;
72569;SDS011;60594;50.204;8.844;2023-07-20T07:43:44;5.18;;;2.50;;
72569;SDS011;60594;50.204;8.844;2023-07-20T07:46:10;4.72;;;2.00;;
72569;SDS011;60594;50.204;8.844;2023-07-20T07:48:37;4.63;;;2.53;;
72569;SDS011;60594;50.204;8.844;2023-07-20T07:51:03;5.45;;;1.92;;
72569;SDS011;60594;50.204;8.844;2023-07-20T07:53:30;4.45;;;1.80;;
72569;SDS011;60594;50.204;8.844;2023-07-20T07:55:58;5.43;;;2.10;;
72569;SDS011;60594;50.204;8.844;2023-07-20T07:58:25;4.32;;;2.00;;
72569;SDS011;60594;50.204;8.844;2023-07-20T08:00:51;5.43;;;2.22;;
72569;SDS011;60594;50.204;8.844;2023-07-20T08:03:18;5.32;;;2.17;;
72569;SDS011;60594;50.204;8.844;2023-07-20T08:05:45;5.68;;;2.33;;
72569;SDS011;60594;50.204;8.844;2023-07-20T08:08:11;5.85;;;1.90;;
72569;SDS011;60594;50.204;8.844;2023-07-20T08:10:38;4.68;;;1.70;;
72569;SDS011;60594;50.204;8.844;2023-07-20T08:13:04;5.80;;;1.90;;
72569;SDS011;60594;50.204;8.844;2023-07-20T08:15:30;5.93;;;1.88;;
72569;SDS011;60594;50.204;8.844;2023-07-20T08:17:57;4.63;;;1.90;;
72569;SDS011;60594;50.204;8.844;2023-07-20T08:20:24;5.45;;;1.80;;
72569;SDS011;60594;50.204;8.844;2023-07-20T08:22:54;10.70;;;2.13;;
72569;SDS011;60594;50.204;8.844;2023-07-20T08:25:21;4.13;;;1.80;;
72569;SDS011;60594;50.204;8.844;2023-07-20T08:27:47;6.20;;;2.40;;
72569;SDS011;60594;50.204;8.844;2023-07-20T08:30:14;4.57;;;2.10;;
72569;SDS011;60594;50.204;8.844;2023-07-20T08:32:40;4.70;;;2.10;;
72569;SDS011;60594;50.204;8.844;2023-07-20T08:35:07;3.67;;;1.92;;
72569;SDS011;60594;50.204;8.844;2023-07-20T08:37:34;5.90;;;2.10;;
72569;SDS011;60594;50.204;8.844;2023-07-20T08:40:00;4.93;;;2.10;;
72569;SDS011;60594;50.204;8.844;2023-07-20T08:42:27;4.80;;;1.90;;
72569;SDS011;60594;50.204;8.844;2023-07-20T08:44:55;5.18;;;2.38;;
72569;SDS011;60594;50.204;8.844;2023-07-20T08:47:23;4.07;;;1.90;;
72569;SDS011;60594;50.204;8.844;2023-07-20T08:49:51;3.65;;;1.67;;
72569;SDS011;60594;50.204;8.844;2023-07-20T08:52:21;5.45;;;1.80;;
72569;SDS011;60594;50.204;8.844;2023-07-20T08:54:47;4.63;;;2.00;;
72569;SDS011;60594;50.204;8.844;2023-07-20T08:57:15;4.15;;;1.95;;
72569;SDS011;60594;50.204;8.844;2023-07-20T08:59:42;4.22;;;1.80;;
72569;SDS011;60594;50.204;8.844;2023-07-20T09:02:10;4.22;;;1.73;;
72569;SDS011;60594;50.204;8.844;2023-07-20T09:04:43;4.10;;;1.70;;
72569;SDS011;60594;50.204;8.844;2023-07-20T09:07:11;5.15;;;1.70;;
72569;SDS011;60594;50.204;8.844;2023-07-20T09:09:40;4.75;;;2.08;;
72569;SDS011;60594;50.204;8.844;2023-07-20T09:12:13;5.72;;;1.95;;
72569;SDS011;60594;50.204;8.844;2023-07-20T09:14:42;4.07;;;2.10;;
72569;SDS011;60594;50.204;8.844;2023-07-20T09:17:15;4.03;;;1.67;;
72569;SDS011;60594;50.204;8.844;2023-07-20T09:19:45;4.10;;;2.00;;
72569;SDS011;60594;50.204;8.844;2023-07-20T09:22:12;5.00;;;2.05;;
72569;SDS011;60594;50.204;8.844;2023-07-20T09:24:39;3.53;;;1.55;;
72569;SDS011;60594;50.204;8.844;2023-07-20T09:27:07;4.55;;;1.92;;
72569;SDS011;60594;50.204;8.844;2023-07-20T09:32:13;4.43;;;1.90;;
72569;SDS011;60594;50.204;8.844;2023-07-20T09:34:45;3.40;;;1.60;;
72569;SDS011;60594;50.204;8.844;2023-07-20T09:37:11;5.47;;;1.80;;
72569;SDS011;60594;50.204;8.844;2023-07-20T09:39:44;4.40;;;1.58;;
72569;SDS011;60594;50.204;8.844;2023-07-20T09:42:12;3.22;;;1.50;;
72569;SDS011;60594;50.204;8.844;2023-07-20T09:44:39;3.78;;;1.80;;
72569;SDS011;60594;50.204;8.844;2023-07-20T09:47:09;3.88;;;1.83;;
72569;SDS011;60594;50.204;8.844;2023-07-20T09:49:42;3.92;;;1.83;;
72569;SDS011;60594;50.204;8.844;2023-07-20T09:52:09;3.55;;;1.65;;
72569;SDS011;60594;50.204;8.844;2023-07-20T09:57:09;5.07;;;1.95;;
72569;SDS011;60594;50.204;8.844;2023-07-20T09:59:38;4.05;;;1.55;;
72569;SDS011;60594;50.204;8.844;2023-07-20T10:02:07;4.13;;;1.73;;
72569;SDS011;60594;50.204;8.844;2023-07-20T10:04:43;3.40;;;1.73;;
72569;SDS011;60594;50.204;8.844;2023-07-20T10:07:10;3.88;;;1.77;;
72569;SDS011;60594;50.204;8.844;2023-07-20T10:12:06;4.30;;;1.70;;
72569;SDS011;60594;50.204;8.844;2023-07-20T10:14:36;3.80;;;1.70;;
72569;SDS011;60594;50.204;8.844;2023-07-20T10:17:07;3.97;;;1.80;;
72569;SDS011;60594;50.204;8.844;2023-07-20T10:19:42;4.45;;;1.83;;
72569;SDS011;60594;50.204;8.844;2023-07-20T10:22:12;3.60;;;1.70;;
72569;SDS011;60594;50.204;8.844;2023-07-20T10:24:45;4.10;;;1.73;;
72569;SDS011;60594;50.204;8.844;2023-07-20T10:27:14;4.13;;;1.73;;
72569;SDS011;60594;50.204;8.844;2023-07-20T10:29:41;4.25;;;1.52;;
72569;SDS011;60594;50.204;8.844;2023-07-20T10:32:09;3.88;;;1.73;;
72569;SDS011;60594;50.204;8.844;2023-07-20T10:34:36;3.58;;;1.73;;
72569;SDS011;60594;50.204;8.844;2023-07-20T10:37:03;3.90;;;1.70;;
72569;SDS011;60594;50.204;8.844;2023-07-20T10:39:32;3.47;;;1.52;;
72569;SDS011;60594;50.204;8.844;2023-07-20T10:42:10;5.00;;;1.70;;
72569;SDS011;60594;50.204;8.844;2023-07-20T10:44:36;4.25;;;2.08;;
72569;SDS011;60594;50.204;8.844;2023-07-20T10:47:08;3.38;;;1.48;;
72569;SDS011;60594;50.204;8.844;2023-07-20T10:49:38;3.53;;;1.83;;
72569;SDS011;60594;50.204;8.844;2023-07-20T10:52:40;4.68;;;1.70;;
72569;SDS011;60594;50.204;8.844;2023-07-20T10:55:15;4.47;;;1.70;;
72569;SDS011;60594;50.204;8.844;2023-07-20T10:57:43;4.35;;;1.60;;
72569;SDS011;60594;50.204;8.844;2023-07-20T11:00:12;3.53;;;1.65;;
72569;SDS011;60594;50.204;8.844;2023-07-20T11:02:44;3.40;;;1.48;;
72569;SDS011;60594;50.204;8.844;2023-07-20T11:05:31;3.60;;;1.50;;
72569;SDS011;60594;50.204;8.844;2023-07-20T11:07:59;3.30;;;1.60;;
72569;SDS011;60594;50.204;8.844;2023-07-20T11:10:26;3.28;;;1.50;;
72569;SDS011;60594;50.204;8.844;2023-07-20T11:13:15;7.07;;;3.20;;
72569;SDS011;60594;50.204;8.844;2023-07-20T11:18:25;3.40;;;1.70;;
72569;SDS011;60594;50.204;8.844;2023-07-20T11:20:52;3.28;;;1.50;;
72569;SDS011;60594;50.204;8.844;2023-07-20T11:23:19;3.92;;;1.52;;
72569;SDS011;60594;50.204;8.844;2023-07-20T11:25:46;3.60;;;1.50;;
72569;SDS011;60594;50.204;8.844;2023-07-20T11:28:13;4.32;;;1.63;;
72569;SDS011;60594;50.204;8.844;2023-07-20T11:30:39;3.60;;;1.98;;
72569;SDS011;60594;50.204;8.844;2023-07-20T11:33:09;3.60;;;1.40;;
72569;SDS011;60594;50.204;8.844;2023-07-20T11:35:41;3.95;;;1.60;;
72569;SDS011;60594;50.204;8.844;2023-07-20T11:38:09;4.32;;;1.80;;
72569;SDS011;60594;50.204;8.844;2023-07-20T11:40:36;3.60;;;1.50;;
72569;SDS011;60594;50.204;8.844;2023-07-20T11:43:02;2.95;;;1.25;;
72569;SDS011;60594;50.204;8.844;2023-07-20T11:45:29;4.00;;;1.70;;
72569;SDS011;60594;50.204;8.844;2023-07-20T11:47:59;3.90;;;1.30;;
72569;SDS011;60594;50.204;8.844;2023-07-20T11:50:26;3.47;;;1.30;;
72569;SDS011;60594;50.204;8.844;2023-07-20T11:52:53;4.18;;;1.40;;
72569;SDS011;60594;50.204;8.844;2023-07-20T11:55:19;4.20;;;1.48;;
72569;SDS011;60594;50.204;8.844;2023-07-20T11:58:05;4.28;;;1.70;;
72569;SDS011;60594;50.204;8.844;2023-07-20T12:00:32;5.28;;;1.70;;
72569;SDS011;60594;50.204;8.844;2023-07-20T12:02:59;3.50;;;1.30;;
72569;SDS011;60594;50.204;8.844;2023-07-20T12:05:26;3.55;;;1.52;;
72569;SDS011;60594;50.204;8.844;2023-07-20T12:07:54;3.53;;;1.52;;
72569;SDS011;60594;50.204;8.844;2023-07-20T12:10:24;3.85;;;1.50;;
72569;SDS011;60594;50.204;8.844;2023-07-20T12:12:52;5.07;;;1.52;;
72569;SDS011;60594;50.204;8.844;2023-07-20T12:15:23;4.15;;;1.40;;
72569;SDS011;60594;50.204;8.844;2023-07-20T12:17:53;4.72;;;1.58;;
72569;SDS011;60594;50.204;8.844;2023-07-20T12:23:08;5.85;;;1.73;;
72569;SDS011;60594;50.204;8.844;2023-07-20T12:25:36;3.90;;;1.45;;
72569;SDS011;60594;50.204;8.844;2023-07-20T12:28:07;4.35;;;1.65;;
72569;SDS011;60594;50.204;8.844;2023-07-20T12:30:35;6.78;;;2.10;;
72569;SDS011;60594;50.204;8.844;2023-07-20T12:33:05;3.83;;;1.63;;
72569;SDS011;60594;50.204;8.844;2023-07-20T12:35:32;3.50;;;1.52;;
72569;SDS011;60594;50.204;8.844;2023-07-20T12:37:59;4.32;;;1.60;;
72569;SDS011;60594;50.204;8.844;2023-07-20T12:40:26;3.97;;;1.45;;
72569;SDS011;60594;50.204;8.844;2023-07-20T12:42:53;3.85;;;1.42;;
72569;SDS011;60594;50.204;8.844;2023-07-20T12:45:19;4.68;;;1.50;;
72569;SDS011;60594;50.204;8.844;2023-07-20T12:47:46;4.25;;;1.70;;
72569;SDS011;60594;50.204;8.844;2023-07-20T12:50:12;3.83;;;1.40;;
72569;SDS011;60594;50.204;8.844;2023-07-20T12:52:39;3.58;;;1.45;;
72569;SDS011;60594;50.204;8.844;2023-07-20T12:55:07;4.15;;;1.25;;
72569;SDS011;60594;50.204;8.844;2023-07-20T12:57:35;4.00;;;1.40;;
72569;SDS011;60594;50.204;8.844;2023-07-20T13:00:03;4.50;;;1.65;;
72569;SDS011;60594;50.204;8.844;2023-07-20T13:02:33;3.60;;;1.70;;
72569;SDS011;60594;50.204;8.844;2023-07-20T13:04:59;3.97;;;1.58;;
72569;SDS011;60594;50.204;8.844;2023-07-20T13:07:29;3.30;;;1.50;;
72569;SDS011;60594;50.204;8.844;2023-07-20T13:10:00;3.53;;;1.60;;
72569;SDS011;60594;50.204;8.844;2023-07-20T13:12:28;6.65;;;1.58;;
72569;SDS011;60594;50.204;8.844;2023-07-20T13:14:55;3.88;;;1.42;;
72569;SDS011;60594;50.204;8.844;2023-07-20T13:17:23;3.05;;;1.27;;
72569;SDS011;60594;50.204;8.844;2023-07-20T13:19:49;3.30;;;1.50;;
72569;SDS011;60594;50.204;8.844;2023-07-20T13:22:16;3.22;;;1.33;;
72569;SDS011;60594;50.204;8.844;2023-07-20T13:24:44;3.60;;;1.40;;
72569;SDS011;60594;50.204;8.844;2023-07-20T13:27:12;3.45;;;1.35;;
72569;SDS011;60594;50.204;8.844;2023-07-20T13:29:39;3.53;;;1.52;;
72569;SDS011;60594;50.204;8.844;2023-07-20T13:32:06;4.63;;;1.50;;
72569;SDS011;60594;50.204;8.844;2023-07-20T13:34:33;3.33;;;1.40;;
72569;SDS011;60594;50.204;8.844;2023-07-20T13:37:00;4.25;;;1.45;;
72569;SDS011;60594;50.204;8.844;2023-07-20T13:39:27;4.32;;;1.20;;
72569;SDS011;60594;50.204;8.844;2023-07-20T13:41:55;3.17;;;1.20;;
72569;SDS011;60594;50.204;8.844;2023-07-20T13:44:21;2.78;;;1.30;;
72569;SDS011;60594;50.204;8.844;2023-07-20T13:46:48;3.13;;;1.50;;
72569;SDS011;60594;50.204;8.844;2023-07-20T13:49:15;3.17;;;1.20;;
72569;SDS011;60594;50.204;8.844;2023-07-20T13:51:42;3.10;;;1.38;;
72569;SDS011;60594;50.204;8.844;2023-07-20T13:54:08;3.13;;;1.13;;
72569;SDS011;60594;50.204;8.844;2023-07-20T13:56:35;3.92;;;1.50;;
72569;SDS011;60594;50.204;8.844;2023-07-20T13:59:02;2.80;;;1.25;;
72569;SDS011;60594;50.204;8.844;2023-07-20T14:01:28;4.47;;;1.40;;
72569;SDS011;60594;50.204;8.844;2023-07-20T14:03:56;3.20;;;1.48;;
72569;SDS011;60594;50.204;8.844;2023-07-20T14:06:23;3.45;;;1.30;;
72569;SDS011;60594;50.204;8.844;2023-07-20T14:08:49;2.92;;;1.23;;
72569;SDS011;60594;50.204;8.844;2023-07-20T14:11:16;2.42;;;1.05;;
72569;SDS011;60594;50.204;8.844;2023-07-20T14:13:42;3.15;;;1.35;;
72569;SDS011;60594;50.204;8.844;2023-07-20T14:16:09;3.30;;;1.50;;
72569;SDS011;60594;50.204;8.844;2023-07-20T14:18:35;2.80;;;1.27;;
72569;SDS011;60594;50.204;8.844;2023-07-20T14:21:02;2.90;;;1.15;;
72569;SDS011;60594;50.204;8.844;2023-07-20T14:23:30;3.80;;;1.40;;
72569;SDS011;60594;50.204;8.844;2023-07-20T14:25:57;3.20;;;1.30;;
72569;SDS011;60594;50.204;8.844;2023-07-20T14:28:24;3.20;;;1.17;;
72569;SDS011;60594;50.204;8.844;2023-07-20T14:30:51;4.53;;;1.10;;
72569;SDS011;60594;50.204;8.844;2023-07-20T14:33:17;4.43;;;1.30;;
72569;SDS011;60594;50.204;8.844;2023-07-20T14:35:44;3.38;;;1.13;;
72569;SDS011;60594;50.204;8.844;2023-07-20T14:38:10;3.50;;;1.35;;
72569;SDS011;60594;50.204;8.844;2023-07-20T14:40:37;3.15;;;1.27;;
72569;SDS011;60594;50.204;8.844;2023-07-20T14:43:03;2.90;;;1.17;;
72569;SDS011;60594;50.204;8.844;2023-07-20T14:45:30;2.92;;;1.20;;
72569;SDS011;60594;50.204;8.844;2023-07-20T14:47:56;3.10;;;1.23;;
72569;SDS011;60594;50.204;8.844;2023-07-20T14:50:23;3.40;;;1.40;;
72569;SDS011;60594;50.204;8.844;2023-07-20T14:52:49;3.47;;;1.30;;
72569;SDS011;60594;50.204;8.844;2023-07-20T14:55:16;3.00;;;1.25;;
72569;SDS011;60594;50.204;8.844;2023-07-20T14:57:43;3.95;;;1.10;;
72569;SDS011;60594;50.204;8.844;2023-07-20T15:00:09;3.85;;;1.35;;
72569;SDS011;60594;50.204;8.844;2023-07-20T15:02:37;3.28;;;1.30;;
72569;SDS011;60594;50.204;8.844;2023-07-20T15:05:06;4.07;;;1.40;;
72569;SDS011;60594;50.204;8.844;2023-07-20T15:07:33;3.72;;;2.03;;
72569;SDS011;60594;50.204;8.844;2023-07-20T15:09:59;3.70;;;1.80;;
72569;SDS011;60594;50.204;8.844;2023-07-20T15:12:26;3.45;;;1.80;;
72569;SDS011;60594;50.204;8.844;2023-07-20T15:17:33;3.60;;;1.80;;
72569;SDS011;60594;50.204;8.844;2023-07-20T15:20:04;3.47;;;1.67;;